Time;durP1;ratioP1;P1;durP2;ratioP2;P2;SDS_P1;SDS_P2;PMS_P1;PMS_P2;Temp;Humidity;BMP_temperature;BMP_pressure;BME280_temperature;BME280_humidity;BME280_pressure;Samples;Min_cycle;Max_cycle;Signal;HPM_P1;HPM_P2
2021/05/21 00:00:36;;;;;;;1.43;1.33;;;;;;;16.00;43.80;99699.41;5058966;28;20930;-73
2021/05/21 00:03:02;;;;;;;6.17;1.30;;;;;;;16.07;43.42;99704.88;5060381;28;20607;-73
2021/05/21 00:05:28;;;;;;;2.53;1.50;;;;;;;16.64;42.19;99702.34;5061972;28;20570;-74
2021/05/21 00:07:55;;;;;;;7.03;1.90;;;;;;;15.81;44.05;99700.84;5062891;28;20547;-73
2021/05/21 00:10:21;;;;;;;2.10;1.63;;;;;;;16.60;42.95;99695.69;5062700;28;20565;-74
2021/05/21 00:12:47;;;;;;;4.20;1.63;;;;;;;16.26;43.44;99698.03;5063078;28;20479;-73
2021/05/21 00:15:14;;;;;;;2.00;1.20;;;;;;;16.19;43.56;99694.41;5063028;28;20437;-73
2021/05/21 00:17:41;;;;;;;3.50;1.50;;;;;;;16.33;43.48;99682.72;5063297;28;20829;-73
2021/05/21 00:20:08;;;;;;;3.83;1.43;;;;;;;16.25;43.53;99687.41;5062480;28;20678;-74
2021/05/21 00:22:34;;;;;;;1.73;1.30;;;;;;;16.27;43.57;99683.53;5063096;28;20531;-73
2021/05/21 00:25:01;;;;;;;2.50;1.70;;;;;;;16.31;43.25;99665.91;5063680;28;20521;-73
2021/05/21 00:27:27;;;;;;;2.57;1.37;;;;;;;16.03;43.79;99657.75;5061968;28;20492;-73
2021/05/21 00:29:53;;;;;;;1.60;1.30;;;;;;;16.09;43.75;99650.75;5063191;28;20447;-73
2021/05/21 00:32:19;;;;;;;1.73;1.40;;;;;;;15.97;43.52;99651.25;5061898;28;20567;-73
2021/05/21 00:34:45;;;;;;;1.80;1.60;;;;;;;16.02;43.81;99653.38;5063235;28;20445;-73
2021/05/21 00:37:11;;;;;;;1.70;1.27;;;;;;;16.33;43.23;99642.28;5062659;28;20476;-74
2021/05/21 00:39:38;;;;;;;1.50;1.30;;;;;;;16.14;43.54;99640.22;5062117;28;20484;-72
2021/05/21 00:42:07;;;;;;;3.10;1.50;;;;;;;16.33;42.99;99627.97;5062224;28;20531;-73
2021/05/21 00:44:33;;;;;;;1.50;1.10;;;;;;;16.13;43.51;99625.91;5062963;28;20567;-73
2021/05/21 00:47:00;;;;;;;3.63;2.20;;;;;;;16.03;43.75;99621.88;5062523;28;20501;-73
2021/05/21 00:49:26;;;;;;;1.80;1.60;;;;;;;15.96;43.65;99619.09;5063209;28;20442;-73
2021/05/21 00:51:52;;;;;;;2.07;1.63;;;;;;;16.24;43.08;99610.25;5061544;28;20480;-74
2021/05/21 00:54:19;;;;;;;1.20;1.07;;;;;;;16.09;43.61;99613.84;5062451;28;20453;-74
2021/05/21 00:56:46;;;;;;;3.00;1.00;;;;;;;15.92;44.02;99602.47;5061942;28;20515;-73
2021/05/21 00:59:13;;;;;;;4.40;1.50;;;;;;;15.95;43.62;99595.84;5062336;28;20476;-73
2021/05/21 01:01:39;;;;;;;1.23;1.10;;;;;;;15.95;43.73;99599.41;5059217;28;20492;-74
2021/05/21 01:04:06;;;;;;;2.20;1.20;;;;;;;15.77;44.76;99594.41;5062469;28;20520;-74
2021/05/21 01:06:32;;;;;;;2.43;1.07;;;;;;;15.87;44.23;99585.22;5061766;28;20512;-73
2021/05/21 01:08:59;;;;;;;2.70;1.10;;;;;;;16.31;43.45;99581.47;5062142;28;20471;-73
2021/05/21 01:11:26;;;;;;;1.73;1.20;;;;;;;15.75;44.91;99579.47;5061720;28;20980;-73
2021/05/21 01:13:52;;;;;;;2.27;1.60;;;;;;;15.85;44.63;99573.75;5062109;28;20473;-73
2021/05/21 01:16:19;;;;;;;1.37;1.20;;;;;;;16.00;44.45;99561.91;5061641;28;20504;-73
2021/05/21 01:18:46;;;;;;;3.20;1.30;;;;;;;16.16;44.33;99560.81;5062054;28;20444;-73
2021/05/21 01:21:13;;;;;;;3.93;1.10;;;;;;;15.85;44.64;99560.28;5060827;28;20481;-74
2021/05/21 01:23:39;;;;;;;7.97;1.60;;;;;;;16.05;44.42;99555.09;5061772;28;20531;-72
2021/05/21 01:26:05;;;;;;;3.00;1.83;;;;;;;15.98;44.31;99555.03;5061225;28;20556;-73
2021/05/21 01:28:31;;;;;;;2.07;1.30;;;;;;;16.04;44.88;99550.72;5061687;28;20551;-74
2021/05/21 01:30:58;;;;;;;3.53;1.30;;;;;;;15.52;45.45;99547.25;5061012;28;20567;-73
2021/05/21 01:33:24;;;;;;;1.90;1.20;;;;;;;15.85;45.00;99538.72;5062152;28;20488;-74
2021/05/21 01:35:51;;;;;;;2.03;1.43;;;;;;;15.90;44.90;99544.38;5060844;28;20483;-74
2021/05/21 01:38:18;;;;;;;2.90;1.30;;;;;;;15.99;45.07;99533.28;5061756;28;20471;-74
2021/05/21 01:40:44;;;;;;;2.43;1.47;;;;;;;16.17;44.43;99526.56;5060256;28;20511;-74
2021/05/21 01:43:12;;;;;;;2.13;1.33;;;;;;;15.47;45.96;99523.59;5061432;28;20488;-72
2021/05/21 01:45:38;;;;;;;1.57;1.20;;;;;;;15.71;45.68;99519.72;5060866;28;21041;-74
2021/05/21 01:48:05;;;;;;;2.37;1.30;;;;;;;15.88;45.68;99516.78;5061722;28;20572;-74
2021/05/21 01:50:31;;;;;;;3.30;1.87;;;;;;;15.74;45.53;99510.41;5060503;28;20537;-72
2021/05/21 01:52:58;;;;;;;2.27;1.47;;;;;;;15.74;45.66;99513.91;5061099;28;20477;-73
2021/05/21 01:55:25;;;;;;;4.03;1.13;;;;;;;16.05;45.56;99499.31;5060268;28;20439;-73
2021/05/21 01:57:51;;;;;;;1.57;1.20;;;;;;;15.46;46.36;99494.16;5059012;28;20492;-74
2021/05/21 02:00:17;;;;;;;3.23;1.30;;;;;;;15.93;45.56;99487.38;5060744;28;20821;-74
2021/05/21 02:02:43;;;;;;;2.50;1.60;;;;;;;15.80;45.75;99483.53;5061398;28;20528;-74
2021/05/21 02:05:10;;;;;;;2.57;1.60;;;;;;;15.71;46.25;99481.13;5060714;28;20512;-74
2021/05/21 02:07:37;;;;;;;4.70;1.20;;;;;;;15.71;46.16;99473.03;5061824;28;20444;-73
2021/05/21 02:10:05;;;;;;;2.40;1.30;;;;;;;15.61;46.29;99476.09;5060747;28;20461;-74
2021/05/21 02:12:33;;;;;;;1.70;1.20;;;;;;;15.60;46.46;99474.41;5060625;28;20902;-73
2021/05/21 02:15:00;;;;;;;1.90;1.40;;;;;;;15.44;47.16;99470.94;5061153;28;20437;-73
2021/05/21 02:17:27;;;;;;;2.03;1.10;;;;;;;15.46;46.95;99468.03;5060874;28;20488;-75
2021/05/21 02:19:57;;;;;;;4.27;1.70;;;;;;;15.76;46.53;99458.00;5061363;28;20430;-74
2021/05/21 02:22:24;;;;;;;3.07;1.60;;;;;;;15.66;46.67;99456.63;5056114;28;20526;-74
2021/05/21 02:24:50;;;;;;;1.90;1.30;;;;;;;15.56;46.89;99440.78;5060904;28;20508;-73
2021/05/21 02:27:16;;;;;;;2.83;1.93;;;;;;;15.50;47.09;99445.09;5059900;28;20574;-74
2021/05/21 02:29:44;;;;;;;1.93;1.73;;;;;;;15.53;47.21;99449.25;5060934;28;20476;-74
2021/05/21 02:32:10;;;;;;;3.03;1.40;;;;;;;15.58;46.98;99446.81;5060189;28;20564;-73
2021/05/21 02:34:36;;;;;;;3.90;1.83;;;;;;;15.56;46.90;99435.41;5061486;28;20488;-74
2021/05/21 02:37:02;;;;;;;2.40;1.10;;;;;;;15.32;48.17;99429.38;5060454;28;20904;-74
2021/05/21 02:39:28;;;;;;;2.50;1.30;;;;;;;15.59;47.13;99427.78;5059904;28;20512;-74
2021/05/21 02:41:55;;;;;;;2.80;1.00;;;;;;;15.68;47.21;99423.06;5060382;28;20579;-73
2021/05/21 02:44:21;;;;;;;4.23;1.17;;;;;;;15.22;48.13;99421.63;5060618;28;20520;-74
2021/05/21 02:46:48;;;;;;;2.03;1.40;;;;;;;15.58;47.55;99414.50;5060545;28;20507;-74
2021/05/21 02:49:19;;;;;;;3.13;1.50;;;;;;;15.53;47.67;99408.84;5060687;28;20522;-73
2021/05/21 02:51:45;;;;;;;3.60;1.53;;;;;;;15.67;47.23;99402.53;5054126;28;20491;-74
2021/05/21 02:54:11;;;;;;;1.43;1.03;;;;;;;15.68;47.24;99398.81;5060393;28;20477;-74
2021/05/21 02:56:37;;;;;;;3.10;1.23;;;;;;;15.65;47.45;99391.13;5059922;28;20596;-74
2021/05/21 02:59:03;;;;;;;1.47;0.90;;;;;;;15.75;47.16;99385.44;5060406;28;20509;-76
2021/05/21 03:01:30;;;;;;;2.40;1.40;;;;;;;15.47;47.69;99380.84;5059492;28;20515;-73
2021/05/21 03:03:57;;;;;;;2.40;1.50;;;;;;;15.95;46.84;99386.44;5060352;28;20599;-74
2021/05/21 03:06:23;;;;;;;2.47;1.10;;;;;;;15.35;47.92;99385.06;5059559;28;20508;-73
2021/05/21 03:08:49;;;;;;;2.60;1.30;;;;;;;15.69;47.19;99381.63;5059624;28;20504;-72
2021/05/21 03:11:15;;;;;;;4.13;1.20;;;;;;;15.50;47.76;99375.06;5059458;28;21059;-73
2021/05/21 03:13:41;;;;;;;1.20;1.10;;;;;;;15.83;47.23;99369.09;5059861;28;21197;-73
2021/05/21 03:16:07;;;;;;;3.43;1.20;;;;;;;15.81;47.17;99368.47;5059586;28;20500;-73
2021/05/21 03:18:34;;;;;;;2.17;1.10;;;;;;;15.73;47.58;99366.75;5060696;28;20472;-74
2021/05/21 03:21:01;;;;;;;3.13;1.23;;;;;;;15.60;47.43;99366.63;5059479;28;20473;-73
2021/05/21 03:23:27;;;;;;;2.40;1.10;;;;;;;15.56;47.83;99373.44;5059513;28;20552;-73
2021/05/21 03:25:53;;;;;;;1.70;1.20;;;;;;;15.66;47.66;99365.84;5059647;28;20476;-73
2021/05/21 03:28:19;;;;;;;2.93;1.30;;;;;;;15.69;47.73;99375.41;5060589;28;20508;-73
2021/05/21 03:30:46;;;;;;;2.40;1.20;;;;;;;15.49;48.30;99359.09;5059201;28;20558;-72
2021/05/21 03:33:12;;;;;;;2.40;1.30;;;;;;;15.73;47.53;99352.44;5060251;28;20538;-73
2021/05/21 03:35:39;;;;;;;3.33;1.33;;;;;;;15.58;47.93;99350.66;5059281;28;21188;-73
2021/05/21 03:38:06;;;;;;;1.17;1.07;;;;;;;15.70;47.55;99356.34;5060616;28;20485;-74
2021/05/21 03:40:34;;;;;;;2.57;1.50;;;;;;;15.37;48.52;99334.53;5061836;28;20560;-73
2021/05/21 03:43:00;;;;;;;2.80;1.20;;;;;;;15.49;48.55;99332.16;5062217;28;20507;-73
2021/05/21 03:45:26;;;;;;;3.53;1.13;;;;;;;15.35;48.66;99337.41;5063253;28;20461;-73
2021/05/21 03:47:52;;;;;;;1.23;1.13;;;;;;;15.11;49.23;99327.88;5063977;28;20487;-72
2021/05/21 03:50:20;;;;;;;1.10;0.90;;;;;;;15.18;48.82;99326.06;5063672;28;20440;-73
2021/05/21 03:52:47;;;;;;;4.83;1.47;;;;;;;15.59;47.85;99328.09;5056194;28;20441;-73
2021/05/21 03:55:16;;;;;;;1.83;1.20;;;;;;;15.44;48.84;99324.66;5063465;28;20480;-73
2021/05/21 03:57:42;;;;;;;1.63;0.90;;;;;;;15.57;48.59;99323.91;5064209;28;20496;-72
2021/05/21 04:00:11;;;;;;;2.53;1.23;;;;;;;15.53;48.25;99325.34;5063053;28;20441;-73
2021/05/21 04:02:37;;;;;;;2.13;1.30;;;;;;;15.35;48.60;99310.50;5063008;28;20543;-73
2021/05/21 04:05:04;;;;;;;3.10;1.20;;;;;;;15.84;47.57;99310.66;5063849;28;20512;-73
2021/05/21 04:07:30;;;;;;;2.10;1.00;;;;;;;15.53;48.22;99306.47;5062939;28;20548;-74
2021/05/21 04:09:56;;;;;;;3.87;1.47;;;;;;;16.23;46.70;99303.81;5040981;28;20458;-74
2021/05/21 04:12:25;;;;;;;2.40;1.23;;;;;;;16.04;46.55;99308.06;5043325;28;20521;-74
2021/05/21 04:14:51;;;;;;;1.20;1.00;;;;;;;17.79;42.96;99292.81;5043469;28;20449;-75
2021/05/21 04:17:19;;;;;;;2.47;1.20;;;;;;;18.03;42.09;99294.03;5043302;28;20494;-74
2021/05/21 04:19:45;;;;;;;2.10;1.10;;;;;;;17.42;43.28;99291.63;5043547;28;20449;-72
2021/05/21 04:22:12;;;;;;;2.53;1.07;;;;;;;17.11;43.85;99296.59;5042837;28;20505;-73
2021/05/21 04:24:38;;;;;;;4.03;1.27;;;;;;;16.10;46.21;99294.63;5042828;28;20517;-75
2021/05/21 04:27:04;;;;;;;2.40;1.13;;;;;;;16.06;46.52;99289.81;5043031;28;20549;-73
2021/05/21 04:29:31;;;;;;;3.50;1.40;;;;;;;17.17;44.49;99283.28;5043420;28;20510;-73
2021/05/21 04:31:58;;;;;;;3.53;1.50;;;;;;;18.12;42.06;99283.81;5046181;28;20478;-74
2021/05/21 04:34:24;;;;;;;2.90;1.20;;;;;;;18.22;41.25;99277.94;5051419;28;20457;-74
2021/05/21 04:36:50;;;;;;;2.20;0.87;;;;;;;19.11;39.46;99276.22;5059237;28;20512;-71
2021/05/21 04:39:17;;;;;;;1.37;0.97;;;;;;;19.08;39.59;99276.66;5044388;28;20501;-73
2021/05/21 04:41:43;;;;;;;1.27;0.80;;;;;;;19.45;38.38;99275.94;5056186;28;20489;-73
2021/05/21 04:44:11;;;;;;;2.50;0.97;;;;;;;19.47;38.56;99269.22;5061966;28;20513;-71
2021/05/21 04:46:38;;;;;;;1.83;0.83;;;;;;;18.44;40.23;99273.88;5062473;28;20492;-72
2021/05/21 04:49:05;;;;;;;2.17;1.00;;;;;;;20.09;36.95;99273.84;5062986;28;20536;-75
2021/05/21 04:51:31;;;;;;;1.97;0.90;;;;;;;19.64;37.84;99291.19;5061064;28;20487;-74
2021/05/21 04:53:59;;;;;;;2.90;0.80;;;;;;;20.04;37.26;99284.53;5060659;28;20452;-74
2021/05/21 04:56:25;;;;;;;1.63;0.90;;;;;;;19.56;38.00;99272.47;5059170;28;20498;-74
2021/05/21 04:58:51;;;;;;;5.10;1.30;;;;;;;19.39;38.10;99261.41;5063090;28;20769;-74
2021/05/21 05:01:18;;;;;;;2.13;0.80;;;;;;;20.74;35.84;99266.97;5060519;28;20536;-72
2021/05/21 05:03:45;;;;;;;1.50;0.80;;;;;;;18.83;40.01;99265.78;5056174;28;20861;-73
2021/05/21 05:06:11;;;;;;;1.10;0.80;;;;;;;19.81;37.96;99261.63;5057200;28;20501;-72
2021/05/21 05:08:38;;;;;;;2.30;1.00;;;;;;;20.46;36.34;99261.03;5061269;28;20505;-73
2021/05/21 05:11:04;;;;;;;2.10;0.97;;;;;;;19.62;37.67;99255.31;5061599;28;20496;-74
2021/05/21 05:13:30;;;;;;;3.90;1.10;;;;;;;20.08;38.13;99256.72;5062426;28;20457;-72
2021/05/21 05:15:57;;;;;;;1.90;0.83;;;;;;;20.29;37.16;99252.72;5061353;28;20473;-74
2021/05/21 05:18:23;;;;;;;1.73;1.10;;;;;;;18.56;40.06;99251.56;5061223;28;20957;-74
2021/05/21 05:20:50;;;;;;;3.37;1.53;;;;;;;19.00;39.58;99245.22;5061087;28;20461;-74
2021/05/21 05:23:17;;;;;;;1.60;1.20;;;;;;;19.26;38.73;99250.66;5061890;28;20498;-73
2021/05/21 05:25:44;;;;;;;0.90;0.67;;;;;;;19.83;38.28;99248.66;5061105;28;20496;-72
2021/05/21 05:28:11;;;;;;;2.47;1.20;;;;;;;19.67;38.18;99249.22;5061477;28;20571;-73
2021/05/21 05:30:38;;;;;;;1.47;1.23;;;;;;;20.31;37.33;99238.88;5061042;28;20460;-73
2021/05/21 05:33:04;;;;;;;3.97;1.10;;;;;;;18.95;39.70;99233.41;5058997;28;20475;-72
2021/05/21 05:35:30;;;;;;;4.07;1.10;;;;;;;20.96;35.89;99246.34;5058413;28;20494;-73
2021/05/21 05:37:57;;;;;;;2.20;0.93;;;;;;;21.57;34.50;99236.13;5061316;28;20445;-72
2021/05/21 05:40:23;;;;;;;1.87;0.90;;;;;;;21.84;34.34;99232.91;5060759;28;20516;-72
2021/05/21 05:42:49;;;;;;;1.33;0.70;;;;;;;22.13;33.42;99227.50;5051764;28;20538;-73
2021/05/21 05:45:15;;;;;;;1.73;1.10;;;;;;;21.41;34.85;99228.66;5052066;28;20469;-73
2021/05/21 05:47:42;;;;;;;1.97;0.80;;;;;;;21.50;34.84;99216.38;5058833;28;20480;-73
2021/05/21 05:50:09;;;;;;;2.50;1.03;;;;;;;21.79;34.17;99219.22;5052892;28;20456;-71
2021/05/21 05:52:35;;;;;;;3.10;1.20;;;;;;;22.23;33.03;99216.00;5057573;28;20806;-73
2021/05/21 05:55:04;;;;;;;1.70;1.00;;;;;;;21.03;35.13;99222.59;5057241;28;20461;-75
2021/05/21 05:57:30;;;;;;;1.90;1.33;;;;;;;21.70;33.93;99209.75;5060451;28;20449;-75
2021/05/21 05:59:56;;;;;;;3.20;1.10;;;;;;;22.03;33.80;99214.53;5061086;28;20494;-71
2021/05/21 06:02:22;;;;;;;2.77;1.10;;;;;;;21.52;34.58;99208.00;5038004;28;20778;-72
2021/05/21 06:04:48;;;;;;;3.10;1.00;;;;;;;22.86;32.51;99212.28;5041426;28;20493;-79
2021/05/21 06:07:14;;;;;;;1.77;1.33;;;;;;;22.58;33.03;99204.97;5040090;28;20524;-78
2021/05/21 06:09:40;;;;;;;3.37;1.13;;;;;;;22.56;32.70;99202.50;5039720;28;20485;-79
2021/05/21 06:12:09;;;;;;;2.57;1.20;;;;;;;21.51;34.75;99201.75;5041377;28;20529;-79
2021/05/21 06:14:36;;;;;;;2.83;1.00;;;;;;;20.53;36.31;99198.50;5042284;28;20469;-76
2021/05/21 06:17:02;;;;;;;3.93;1.30;;;;;;;21.71;33.91;99201.34;5040690;28;20494;-76
2021/05/21 06:19:28;;;;;;;6.87;1.13;;;;;;;21.92;34.06;99186.25;5054102;28;20957;-76
2021/05/21 06:21:54;;;;;;;210.53;28.13;;;;;;;22.68;32.68;99186.09;5061185;28;20483;-76
2021/05/21 06:24:20;;;;;;;4.37;0.90;;;;;;;21.28;34.96;99180.78;5041604;28;20496;-78
2021/05/21 06:27:15;;;;;;;2.80;1.40;;;;;;;21.75;34.41;99180.78;5052352;28;20560;-76
2021/05/21 06:29:42;;;;;;;4.87;1.00;;;;;;;20.95;35.56;99184.09;5055407;28;20491;-73
2021/05/21 06:32:09;;;;;;;8.23;2.33;;;;;;;22.85;32.49;99175.19;5059583;28;20504;-71
2021/05/21 06:34:35;;;;;;;2.73;1.20;;;;;;;23.96;30.95;99180.91;5060862;28;20480;-73
2021/05/21 06:37:01;;;;;;;1.70;1.13;;;;;;;24.63;29.42;99174.25;5060926;28;20500;-71
2021/05/21 06:39:27;;;;;;;3.13;1.17;;;;;;;24.35;30.34;99172.59;5059922;28;20517;-72
2021/05/21 06:41:53;;;;;;;2.27;1.00;;;;;;;23.06;31.91;99161.94;5060626;28;20481;-76
2021/05/21 06:44:19;;;;;;;3.90;1.00;;;;;;;21.81;34.44;99158.03;5059902;28;20492;-74
2021/05/21 06:46:46;;;;;;;6.27;1.50;;;;;;;21.20;36.35;99153.97;5060411;28;20549;-75
2021/05/21 06:49:14;;;;;;;3.07;1.30;;;;;;;22.41;33.77;99155.94;5060599;28;20452;-72
2021/05/21 06:51:41;;;;;;;2.03;1.03;;;;;;;21.39;35.42;99158.22;5059493;28;20476;-72
2021/05/21 06:54:07;;;;;;;3.13;1.00;;;;;;;21.79;34.59;99156.63;5061138;28;20452;-71
2021/05/21 06:56:36;;;;;;;4.00;0.90;;;;;;;21.79;34.73;99152.00;5059956;28;20481;-69
2021/05/21 06:59:03;;;;;;;3.43;1.20;;;;;;;22.19;34.09;99156.59;5060709;28;20813;-74
2021/05/21 07:01:30;;;;;;;4.33;0.93;;;;;;;20.76;36.79;99151.59;5059478;28;20511;-73
2021/05/21 07:03:57;;;;;;;5.00;1.10;;;;;;;19.66;38.35;99152.66;5055987;28;20481;-74
2021/05/21 07:06:23;;;;;;;2.40;1.10;;;;;;;20.05;38.66;99150.53;5059911;28;20938;-77
2021/05/21 07:08:50;;;;;;;4.77;1.70;;;;;;;18.44;41.20;99146.69;5060102;28;20455;-77
2021/05/21 07:11:17;;;;;;;5.80;1.63;;;;;;;18.78;41.40;99157.25;5060606;28;20477;-79
2021/05/21 07:13:43;;;;;;;4.83;2.13;;;;;;;19.05;40.45;99163.31;5062721;28;20488;-75
2021/05/21 07:16:09;;;;;;;3.77;1.23;;;;;;;18.95;40.84;99139.44;5063301;28;20480;-78
2021/05/21 07:18:35;;;;;;;2.37;1.00;;;;;;;19.41;39.68;99155.44;5059141;28;20516;-76
2021/05/21 07:21:03;;;;;;;3.10;0.83;;;;;;;19.34;39.74;99150.94;5053224;28;21170;-75
2021/05/21 07:23:29;;;;;;;3.07;1.33;;;;;;;19.28;40.33;99151.81;5064965;28;20489;-72
2021/05/21 07:25:55;;;;;;;3.13;1.40;;;;;;;18.99;40.40;99150.66;5064469;28;20468;-70
2021/05/21 07:28:24;;;;;;;5.20;1.00;;;;;;;19.24;39.40;99153.34;5063690;28;20448;-74
2021/05/21 07:30:50;;;;;;;1.83;0.90;;;;;;;19.33;39.57;99143.84;5064096;28;20514;-74
2021/05/21 07:33:16;;;;;;;4.00;0.80;;;;;;;19.89;38.54;99136.56;5064206;28;20521;-76
2021/05/21 07:35:43;;;;;;;4.90;1.63;;;;;;;20.73;37.14;99134.91;5062889;28;20526;-74
2021/05/21 07:38:10;;;;;;;5.90;1.30;;;;;;;20.49;36.75;99132.97;5061926;28;20448;-75
2021/05/21 07:40:36;;;;;;;13.17;2.50;;;;;;;20.64;37.25;99127.13;5060725;28;20473;-78
2021/05/21 07:43:02;;;;;;;21.07;2.60;;;;;;;19.36;38.56;99123.63;5064171;28;20449;-74
2021/05/21 07:45:28;;;;;;;10.53;2.53;;;;;;;20.08;37.05;99122.94;5062785;28;20469;-78
2021/05/21 07:47:55;;;;;;;8.47;3.40;;;;;;;21.31;35.98;99128.66;5063262;28;20457;-78
2021/05/21 07:50:21;;;;;;;8.60;1.50;;;;;;;20.82;35.59;99133.53;5062584;28;20457;-76
2021/05/21 07:52:47;;;;;;;34.43;5.20;;;;;;;20.69;35.56;99118.25;5063598;28;20441;-76
2021/05/21 07:55:14;;;;;;;4.80;1.77;;;;;;;18.44;39.80;99121.50;5061723;28;20449;-76
2021/05/21 07:57:41;;;;;;;3.30;1.27;;;;;;;19.68;38.33;99126.16;5063028;28;20448;-72
2021/05/21 08:00:09;;;;;;;2.93;1.70;;;;;;;19.80;37.91;99112.69;5062610;28;20506;-76
2021/05/21 08:02:35;;;;;;;9.60;2.00;;;;;;;19.32;38.49;99125.94;5063138;28;20477;-75
2021/05/21 08:05:01;;;;;;;3.53;1.87;;;;;;;18.78;39.61;99130.19;5045969;28;20489;-75
2021/05/21 08:07:27;;;;;;;6.90;1.93;;;;;;;19.45;38.78;99130.38;5060293;28;20473;-74
2021/05/21 08:09:55;;;;;;;3.13;1.20;;;;;;;19.26;38.32;99126.00;5062498;28;20949;-72
2021/05/21 08:12:22;;;;;;;15.57;2.60;;;;;;;19.09;38.99;99123.88;5062894;28;20487;-78
2021/05/21 08:14:48;;;;;;;2.63;0.90;;;;;;;19.76;37.55;99117.75;5063413;28;20487;-69
2021/05/21 08:17:15;;;;;;;1.77;1.13;;;;;;;19.63;38.21;99128.72;5063053;28;20577;-69
2021/05/21 08:19:41;;;;;;;4.87;1.40;;;;;;;19.12;39.49;99128.03;5062934;28;20448;-77
2021/05/21 08:22:07;;;;;;;3.83;1.10;;;;;;;19.53;39.46;99129.25;5062691;28;20484;-73
2021/05/21 08:24:33;;;;;;;4.27;1.30;;;;;;;19.09;40.10;99126.59;5061377;28;20488;-73
2021/05/21 08:27:00;;;;;;;3.90;1.80;;;;;;;19.47;39.38;99135.56;5061827;28;20483;-72
2021/05/21 08:29:27;;;;;;;2.20;1.30;;;;;;;19.40;39.18;99132.94;5061247;28;20930;-75
2021/05/21 08:31:53;;;;;;;6.90;1.10;;;;;;;19.49;39.35;99109.88;5057852;28;20791;-71
2021/05/21 08:34:19;;;;;;;3.40;1.07;;;;;;;19.98;38.50;99125.38;5061785;28;20456;-78
2021/05/21 08:36:46;;;;;;;5.63;1.60;;;;;;;19.20;39.00;99114.19;5063210;28;20501;-80
2021/05/21 08:39:14;;;;;;;6.63;2.10;;;;;;;19.24;39.08;99117.28;5069268;28;20494;-78
2021/05/21 08:41:44;;;;;;;5.13;1.70;;;;;;;19.15;40.45;99114.03;5084338;28;20476;-83
2021/05/21 08:44:10;;;;;;;6.70;1.50;;;;;;;21.23;35.81;99099.97;5082362;28;20546;-81
2021/05/21 08:46:37;;;;;;;6.70;1.40;;;;;;;23.58;32.17;99100.72;5085500;28;20479;-73
2021/05/21 08:49:04;;;;;;;6.50;1.60;;;;;;;23.33;31.28;99093.03;5083019;28;20437;-78
2021/05/21 08:51:30;;;;;;;5.67;1.57;;;;;;;21.13;34.67;99088.88;5080920;28;20560;-75
2021/05/21 08:53:56;;;;;;;5.87;1.20;;;;;;;21.21;34.53;99095.81;5082087;28;20454;-73
2021/05/21 08:56:23;;;;;;;7.90;1.30;;;;;;;19.50;36.35;99097.19;5081535;28;20476;-72
2021/05/21 08:58:51;;;;;;;308.13;45.53;;;;;;;19.05;37.35;99098.31;5081515;28;20533;-69
2021/05/21 09:01:17;;;;;;;7.13;1.67;;;;;;;18.46;38.07;99097.75;5081228;28;20982;-71
2021/05/21 09:03:46;;;;;;;8.93;1.30;;;;;;;18.39;39.39;99103.22;5082086;28;20488;-76
2021/05/21 09:06:14;;;;;;;46.97;6.57;;;;;;;18.87;38.63;99104.53;5080401;28;20586;-78
2021/05/21 09:08:43;;;;;;;3.73;1.63;;;;;;;19.22;37.35;99105.81;5081809;28;20452;-74
2021/05/21 09:11:28;;;;;;;9.27;2.00;;;;;;;19.44;36.88;99098.91;5081457;28;20474;-77
2021/05/21 09:13:59;;;;;;;2.40;1.40;;;;;;;19.29;38.76;99103.91;5067549;28;20458;-77
2021/05/21 09:16:28;;;;;;;4.60;1.20;;;;;;;19.09;37.93;99101.38;5078828;28;20472;-76
2021/05/21 09:19:07;;;;;;;6.37;2.20;;;;;;;20.06;36.43;99104.16;5081604;28;20447;-79
2021/05/21 09:22:00;;;;;;;12.03;2.67;;;;;;;22.84;31.39;99086.34;5080135;28;20476;-72
2021/05/21 09:24:33;;;;;;;6.40;1.83;;;;;;;22.79;31.17;99069.09;5082742;28;20549;-75
2021/05/21 09:26:59;;;;;;;3.80;1.63;;;;;;;24.09;29.29;99095.84;5080505;28;20542;-78
2021/05/21 09:29:42;;;;;;;4.23;1.77;;;;;;;24.35;28.36;99096.91;5080901;28;20441;-76
2021/05/21 09:32:20;;;;;;;4.03;1.70;;;;;;;22.92;30.53;99075.00;5080591;28;20467;-69
2021/05/21 09:35:02;;;;;;;3.77;1.43;;;;;;;22.16;30.80;99083.56;5080394;28;20458;-73
2021/05/21 09:37:29;;;;;;;7.00;1.63;;;;;;;21.28;32.50;99079.38;5078576;28;20566;-73
2021/05/21 09:40:07;;;;;;;5.83;1.43;;;;;;;22.62;32.12;99080.84;5079725;28;20475;-76
2021/05/21 09:42:52;;;;;;;9.00;2.20;;;;;;;21.43;32.96;99104.19;5078431;28;20468;-80
2021/05/21 09:45:26;;;;;;;5.70;1.20;;;;;;;21.81;32.63;99089.19;5078574;28;20488;-73
2021/05/21 09:48:01;;;;;;;8.30;1.60;;;;;;;22.73;32.25;99084.53;5081396;28;20451;-74
2021/05/21 09:50:33;;;;;;;26.43;5.50;;;;;;;23.31;30.14;99087.84;5074832;28;20460;-74
2021/05/21 09:53:01;;;;;;;6.80;1.63;;;;;;;21.51;33.43;99092.97;5080122;28;20838;-73
2021/05/21 09:55:32;;;;;;;5.30;1.33;;;;;;;21.53;33.28;99101.69;5080008;28;20467;-70
2021/05/21 09:57:58;;;;;;;25.17;3.90;;;;;;;20.75;34.34;99092.91;5078133;28;20448;-70
2021/05/21 10:00:24;;;;;;;4.70;1.73;;;;;;;21.25;34.49;99099.72;5078829;28;20464;-78
2021/05/21 10:02:51;;;;;;;5.93;1.63;;;;;;;20.49;33.80;99099.56;5082599;28;20464;-74
2021/05/21 10:05:17;;;;;;;3.60;1.17;;;;;;;20.21;34.71;99090.19;5079419;28;21055;-73
2021/05/21 10:07:47;;;;;;;3.13;1.70;;;;;;;20.44;34.71;99107.59;5080603;28;20463;-72
2021/05/21 10:10:14;;;;;;;3.43;1.60;;;;;;;20.80;33.78;99101.16;5080120;28;20440;-77
2021/05/21 10:12:41;;;;;;;7.07;2.03;;;;;;;22.19;30.18;99098.59;5080211;28;20456;-71
2021/05/21 10:15:08;;;;;;;4.23;1.70;;;;;;;22.35;28.92;99095.09;5080175;28;20452;-71
2021/05/21 10:17:34;;;;;;;7.33;1.87;;;;;;;23.14;28.05;99098.81;5079604;28;21022;-75
2021/05/21 10:20:01;;;;;;;29.37;3.23;;;;;;;22.11;29.50;99082.66;5079964;28;20463;-72
2021/05/21 10:22:28;;;;;;;8.20;2.13;;;;;;;22.55;29.17;99104.66;5079674;28;20476;-73
2021/05/21 10:25:00;;;;;;;7.30;2.00;;;;;;;20.72;31.48;99101.50;5096203;28;20492;-73
2021/05/21 10:27:30;;;;;;;6.20;2.03;;;;;;;22.46;28.50;99104.25;5078977;28;20486;-73
2021/05/21 10:30:00;;;;;;;7.07;1.50;;;;;;;21.21;28.94;99101.25;5080761;28;20448;-69
2021/05/21 10:32:28;;;;;;;4.33;1.37;;;;;;;20.63;28.49;99095.59;5083014;28;20559;-70
2021/05/21 10:34:55;;;;;;;12.40;1.60;;;;;;;19.83;29.93;99110.34;5083323;28;20448;-68
2021/05/21 10:37:27;;;;;;;3.43;1.73;;;;;;;21.32;28.08;99097.69;5078467;28;20562;-73
2021/05/21 10:40:03;;;;;;;6.37;1.60;;;;;;;20.94;31.80;99136.25;5079811;28;20491;-72
2021/05/21 10:42:29;;;;;;;4.53;1.83;;;;;;;22.09;34.55;99114.75;5071180;28;20493;-75
2021/05/21 10:45:11;;;;;;;6.50;1.93;;;;;;;22.74;34.74;99118.88;5080462;28;20499;-73
2021/05/21 10:47:38;;;;;;;4.97;1.60;;;;;;;22.34;34.87;99126.13;5080424;28;20479;-73
2021/05/21 10:50:06;;;;;;;3.23;1.63;;;;;;;22.54;34.73;99125.66;5081553;28;20442;-70
2021/05/21 10:52:52;;;;;;;6.37;2.13;;;;;;;23.02;32.82;99112.50;5079793;28;21015;-73
2021/05/21 10:55:20;;;;;;;6.93;1.67;;;;;;;22.96;31.85;99116.22;5078322;28;20448;-74
2021/05/21 10:57:59;;;;;;;9.37;2.00;;;;;;;25.03;31.14;99114.69;5078089;28;20429;-74
2021/05/21 11:00:25;;;;;;;6.10;2.23;;;;;;;25.24;28.87;99107.41;5078286;28;20491;-75
2021/05/21 11:02:55;;;;;;;6.07;2.20;;;;;;;25.90;27.79;99109.63;5079821;28;20474;-76
2021/05/21 11:05:24;;;;;;;3.33;1.43;;;;;;;22.40;28.73;99094.38;5080581;28;20490;-73
2021/05/21 11:07:55;;;;;;;8.60;1.40;;;;;;;21.59;27.63;99097.19;5080520;28;20436;-74
2021/05/21 11:10:45;;;;;;;6.00;1.20;;;;;;;21.69;24.26;99100.13;5079719;28;20535;-71
2021/05/21 11:13:13;;;;;;;7.80;1.83;;;;;;;22.28;24.17;99091.72;5072262;28;20527;-72
2021/05/21 11:15:41;;;;;;;4.57;1.50;;;;;;;21.49;25.55;99091.53;5079576;28;20889;-72
2021/05/21 11:18:25;;;;;;;8.83;1.60;;;;;;;22.10;25.48;99103.63;5079692;28;20459;-70
2021/05/21 11:20:53;;;;;;;5.67;1.50;;;;;;;21.29;24.00;99091.91;5059133;28;20460;-71
2021/05/21 11:23:19;;;;;;;13.73;2.20;;;;;;;21.44;23.47;99109.38;5078876;28;20980;-71
2021/05/21 11:26:03;;;;;;;11.33;1.60;;;;;;;20.48;24.29;99085.19;5079337;28;20467;-69
2021/05/21 11:28:29;;;;;;;10.00;1.40;;;;;;;22.01;24.13;99107.78;5077582;28;20439;-71
2021/05/21 11:30:56;;;;;;;5.40;1.30;;;;;;;20.56;24.56;99086.72;5078620;28;20468;-72
2021/05/21 11:33:22;;;;;;;9.10;1.90;;;;;;;21.38;23.75;99083.13;5079729;28;20452;-66